Time;durP1;ratioP1;P1;durP2;ratioP2;P2;SDS_P1;SDS_P2;PMS_P1;PMS_P2;Temp;Humidity;BMP_temperature;BMP_pressure;BME280_temperature;BME280_humidity;BME280_pressure;Samples;Min_cycle;Max_cycle;Signal;HPM_P1;HPM_P2
2024/01/13 00:01:43;;;;;;;31.73;17.63;;;;;;;8.41;75.40;103029.34;4993062;28;20035;-46
2024/01/13 00:04:10;;;;;;;35.63;18.75;;;;;;;9.05;73.91;103029.34;4992962;28;20041;-44
2024/01/13 00:06:36;;;;;;;41.88;22.52;;;;;;;9.18;73.17;103024.00;4993183;28;20039;-44
2024/01/13 00:09:01;;;;;;;27.45;17.17;;;;;;;8.75;73.68;103021.69;4992284;28;20512;-41
2024/01/13 00:11:27;;;;;;;27.15;15.93;;;;;;;8.46;74.08;103019.19;4992872;28;20043;-42
2024/01/13 00:13:52;;;;;;;26.73;16.17;;;;;;;8.71;74.01;103009.34;4992151;28;20235;-42
2024/01/13 00:16:17;;;;;;;27.67;16.27;;;;;;;8.42;75.01;103018.09;4992854;28;20038;-43
2024/01/13 00:18:42;;;;;;;28.10;16.25;;;;;;;8.67;74.85;103009.97;4993641;28;20092;-45
2024/01/13 00:21:08;;;;;;;28.02;17.00;;;;;;;8.93;73.73;103006.19;4993825;28;20069;-49
2024/01/13 00:23:33;;;;;;;31.50;18.17;;;;;;;8.72;73.78;102999.84;4993746;28;20133;-43
2024/01/13 00:25:59;;;;;;;32.25;18.60;;;;;;;8.78;73.97;103006.22;4992746;28;20497;-44
2024/01/13 00:28:24;;;;;;;29.40;17.70;;;;;;;8.88;73.89;102990.34;4994679;28;20061;-44
2024/01/13 00:30:50;;;;;;;31.52;18.45;;;;;;;9.04;72.94;102993.75;4993373;28;20038;-43
2024/01/13 00:33:15;;;;;;;29.20;17.83;;;;;;;8.96;73.79;102986.41;4994175;28;20034;-42
2024/01/13 00:35:40;;;;;;;26.98;16.33;;;;;;;9.12;72.82;102982.94;4992320;28;20508;-48
2024/01/13 00:38:06;;;;;;;26.90;16.55;;;;;;;9.05;72.48;102979.91;4974112;28;20107;-41
2024/01/13 00:40:31;;;;;;;29.10;17.27;;;;;;;8.96;72.44;102972.53;4992393;28;20055;-43
2024/01/13 00:42:57;;;;;;;25.90;16.27;;;;;;;8.91;72.90;102967.06;4991858;28;20413;-49
2024/01/13 00:45:22;;;;;;;27.63;16.85;;;;;;;8.93;72.89;102964.56;4991724;28;20043;-44
2024/01/13 00:47:47;;;;;;;27.23;16.05;;;;;;;8.99;72.50;102957.09;4988560;28;20081;-43
2024/01/13 00:50:13;;;;;;;27.35;16.65;;;;;;;8.84;73.90;102964.94;4991179;28;20035;-45
2024/01/13 00:52:38;;;;;;;26.73;15.65;;;;;;;9.08;72.68;102957.59;4992347;28;20046;-44
2024/01/13 00:55:04;;;;;;;26.55;16.13;;;;;;;9.10;72.92;102953.34;4991064;28;20076;-50
2024/01/13 00:57:30;;;;;;;25.33;15.77;;;;;;;9.12;72.92;102953.41;4992096;28;20053;-45
2024/01/13 00:59:55;;;;;;;27.98;16.15;;;;;;;8.73;74.11;102957.38;4990266;28;20038;-41
2024/01/13 01:02:20;;;;;;;27.55;16.23;;;;;;;8.95;73.85;102963.84;4992160;28;20046;-44
2024/01/13 01:04:45;;;;;;;27.58;16.85;;;;;;;9.02;73.62;102962.47;4991689;28;20030;-47
2024/01/13 01:07:11;;;;;;;25.35;15.45;;;;;;;9.15;73.30;102953.59;4991544;28;20030;-43
2024/01/13 01:09:36;;;;;;;25.48;15.52;;;;;;;9.17;72.96;102945.03;4989507;28;20121;-42
2024/01/13 01:12:02;;;;;;;28.88;16.17;;;;;;;9.20;72.77;102936.50;4991644;28;20072;-45
2024/01/13 01:14:27;;;;;;;23.88;14.43;;;;;;;9.15;72.60;102933.63;4992108;28;20693;-45
2024/01/13 01:16:52;;;;;;;26.58;14.60;;;;;;;8.92;73.40;102940.25;4990714;28;20104;-44
2024/01/13 01:19:18;;;;;;;25.38;14.80;;;;;;;9.05;73.06;102939.19;4992810;28;20092;-41
2024/01/13 01:21:43;;;;;;;25.00;14.23;;;;;;;9.02;73.34;102941.66;4991516;28;20046;-41
2024/01/13 01:24:08;;;;;;;24.08;14.40;;;;;;;9.06;73.52;102934.88;4989588;28;20037;-47
2024/01/13 01:26:34;;;;;;;24.15;13.38;;;;;;;9.11;73.36;102929.09;4990819;28;20034;-42
2024/01/13 01:28:59;;;;;;;24.27;13.88;;;;;;;8.87;74.46;102922.63;4990416;28;20034;-44
2024/01/13 01:31:24;;;;;;;22.50;13.20;;;;;;;8.98;74.31;102936.19;4990892;28;20113;-46
2024/01/13 01:33:50;;;;;;;23.08;13.27;;;;;;;8.70;75.26;102939.03;4990768;28;20125;-46
2024/01/13 01:36:15;;;;;;;21.50;12.57;;;;;;;8.89;75.10;102929.69;4991491;28;20133;-46
2024/01/13 01:38:40;;;;;;;20.65;11.00;;;;;;;9.14;74.03;102924.06;4992782;28;20512;-43
2024/01/13 01:41:07;;;;;;;19.85;11.38;;;;;;;9.14;74.72;102931.88;4992720;28;20038;-42
2024/01/13 01:43:32;;;;;;;19.33;10.57;;;;;;;8.98;75.29;102926.66;4999723;28;20104;-46
2024/01/13 01:45:59;;;;;;;18.98;11.20;;;;;;;8.97;74.69;102922.28;4995593;28;20457;-44
2024/01/13 01:48:29;;;;;;;19.40;11.13;;;;;;;8.86;75.68;102915.63;4994117;28;20126;-42
2024/01/13 01:50:55;;;;;;;20.20;11.50;;;;;;;9.07;75.62;102915.88;4991093;28;20038;-42
2024/01/13 01:53:21;;;;;;;22.50;11.27;;;;;;;9.26;74.18;102910.78;4991624;28;20153;-43
2024/01/13 01:55:47;;;;;;;18.70;10.45;;;;;;;8.84;75.65;102909.47;4990640;28;20509;-46
2024/01/13 01:58:13;;;;;;;17.05;10.40;;;;;;;8.92;75.99;102906.44;4990891;28;20035;-43
2024/01/13 02:00:38;;;;;;;19.48;9.13;;;;;;;9.21;74.71;102901.88;4990928;28;20400;-46
2024/01/13 02:03:04;;;;;;;12.77;7.07;;;;;;;9.18;74.97;102904.28;4990461;28;20491;-43
2024/01/13 02:05:31;;;;;;;12.38;6.63;;;;;;;8.82;75.96;102892.88;4989874;28;20134;-44
2024/01/13 02:07:56;;;;;;;15.65;7.80;;;;;;;9.15;74.97;102894.59;4990436;28;20046;-48
2024/01/13 02:10:22;;;;;;;14.75;7.47;;;;;;;8.83;75.70;102895.56;4990505;28;20041;-44
2024/01/13 02:12:47;;;;;;;13.65;7.10;;;;;;;9.02;75.42;102891.31;4990087;28;20046;-44
2024/01/13 02:15:13;;;;;;;14.52;6.72;;;;;;;9.10;74.79;102884.78;4989845;28;20603;-45
2024/01/13 02:17:38;;;;;;;10.07;5.55;;;;;;;9.01;74.82;102882.63;4990681;28;20117;-45
2024/01/13 02:20:06;;;;;;;8.10;4.45;;;;;;;8.97;74.65;102875.44;4990370;28;20046;-44
2024/01/13 02:22:32;;;;;;;9.70;4.60;;;;;;;9.30;73.98;102879.78;4992941;28;20496;-44
2024/01/13 02:25:02;;;;;;;7.47;4.55;;;;;;;9.41;73.61;102874.22;4993143;28;20035;-47
2024/01/13 02:27:27;;;;;;;6.47;2.90;;;;;;;9.14;74.02;102868.53;4994316;28;20527;-45
2024/01/13 02:29:53;;;;;;;6.50;2.83;;;;;;;9.30;73.92;102858.97;4993944;28;20066;-43
2024/01/13 02:32:18;;;;;;;6.32;3.00;;;;;;;9.37;73.52;102849.75;4995152;28;20497;-44
2024/01/13 02:34:43;;;;;;;8.38;2.58;;;;;;;9.19;73.57;102844.53;4994440;28;20050;-48
2024/01/13 02:37:08;;;;;;;5.25;2.63;;;;;;;9.26;73.48;102845.72;4993963;28;20164;-45
2024/01/13 02:39:34;;;;;;;5.40;2.63;;;;;;;9.35;73.44;102840.97;4994652;28;20501;-46
2024/01/13 02:41:59;;;;;;;6.93;2.92;;;;;;;9.31;73.43;102832.13;4994224;28;20129;-45
2024/01/13 02:44:25;;;;;;;5.10;2.58;;;;;;;9.20;73.39;102830.69;4996426;28;20038;-44
2024/01/13 02:46:50;;;;;;;4.78;2.40;;;;;;;9.22;73.80;102828.16;4994080;28;20058;-46
2024/01/13 02:49:16;;;;;;;5.45;2.80;;;;;;;9.27;73.56;102826.69;4994107;28;20030;-44
2024/01/13 02:51:41;;;;;;;4.47;1.83;;;;;;;9.20;73.20;102828.09;4994180;28;20031;-45
2024/01/13 02:54:07;;;;;;;4.80;1.77;;;;;;;9.13;73.81;102823.41;4993166;28;20470;-45
2024/01/13 02:56:33;;;;;;;4.25;1.67;;;;;;;9.13;74.08;102828.59;4993898;28;20140;-46
2024/01/13 02:58:59;;;;;;;3.53;1.30;;;;;;;9.09;74.32;102824.03;4993960;28;20386;-44
2024/01/13 03:01:24;;;;;;;5.30;1.40;;;;;;;9.03;74.54;102815.03;4993829;28;20041;-46
2024/01/13 03:03:49;;;;;;;4.78;1.30;;;;;;;9.20;73.74;102802.06;4993407;28;20607;-46
2024/01/13 03:06:15;;;;;;;2.28;1.20;;;;;;;9.18;73.66;102798.50;4993655;28;20452;-47
2024/01/13 03:08:40;;;;;;;3.45;1.30;;;;;;;9.18;73.94;102795.88;4994265;28;20453;-44
2024/01/13 03:11:05;;;;;;;2.83;1.33;;;;;;;9.22;73.65;102792.63;4993591;28;20061;-48
2024/01/13 03:13:35;;;;;;;2.70;1.33;;;;;;;9.16;74.50;102796.63;4994184;28;20589;-46
2024/01/13 03:16:00;;;;;;;4.15;1.40;;;;;;;8.94;75.13;102798.16;4993932;28;20026;-46
2024/01/13 03:18:26;;;;;;;4.18;1.58;;;;;;;8.84;75.09;102795.88;4991586;28;20555;-43
2024/01/13 03:20:51;;;;;;;6.75;1.60;;;;;;;8.92;75.82;102788.47;4993384;28;20508;-45
2024/01/13 03:23:17;;;;;;;3.78;1.52;;;;;;;9.10;74.83;102775.50;4994547;28;20048;-45
2024/01/13 03:25:42;;;;;;;8.15;2.05;;;;;;;9.09;75.03;102765.94;4994870;28;20034;-47
2024/01/13 03:28:07;;;;;;;5.53;1.98;;;;;;;9.18;74.39;102764.66;4995033;28;20049;-47
2024/01/13 03:30:33;;;;;;;8.38;2.20;;;;;;;9.09;74.88;102774.59;4995572;28;20049;-45
2024/01/13 03:32:59;;;;;;;7.43;2.30;;;;;;;8.97;74.99;102774.00;4993961;28;20062;-44
2024/01/13 03:35:24;;;;;;;6.57;2.40;;;;;;;9.35;73.99;102768.97;4993857;28;20038;-44
2024/01/13 03:37:49;;;;;;;4.60;2.40;;;;;;;9.48;73.22;102764.34;4994841;28;20041;-44
2024/01/13 03:40:14;;;;;;;5.18;2.80;;;;;;;9.48;73.12;102754.84;4994463;28;20049;-45
2024/01/13 03:42:40;;;;;;;6.88;2.67;;;;;;;9.37;73.59;102753.44;4994054;28;20465;-45
2024/01/13 03:45:06;;;;;;;4.50;2.40;;;;;;;9.23;74.38;102746.66;4992485;28;20065;-47
2024/01/13 03:47:31;;;;;;;5.25;2.63;;;;;;;9.01;75.66;102751.66;4993120;28;20038;-45
2024/01/13 03:49:56;;;;;;;7.60;2.60;;;;;;;9.10;75.64;102746.88;4992540;28;20435;-46
2024/01/13 03:52:22;;;;;;;7.68;2.80;;;;;;;9.17;74.84;102734.25;4993030;28;20034;-44
2024/01/13 03:54:47;;;;;;;6.15;2.80;;;;;;;9.00;75.54;102736.84;4991787;28;20475;-47
2024/01/13 03:57:12;;;;;;;5.13;2.40;;;;;;;8.98;75.79;102725.47;4992574;28;20453;-45
2024/01/13 03:59:38;;;;;;;8.95;2.58;;;;;;;8.76;76.96;102719.22;4993006;28;20038;-44
2024/01/13 04:02:03;;;;;;;5.10;2.40;;;;;;;8.59;77.39;102716.59;4992329;28;20129;-50
2024/01/13 04:04:28;;;;;;;6.10;2.20;;;;;;;9.02;76.31;102711.81;4991812;28;20066;-46
2024/01/13 04:06:54;;;;;;;5.82;1.98;;;;;;;8.79;75.74;102715.84;4992500;28;20057;-44
2024/01/13 04:09:19;;;;;;;4.90;1.98;;;;;;;8.51;77.62;102713.59;4992669;28;20035;-48
2024/01/13 04:11:44;;;;;;;4.28;1.30;;;;;;;8.69;76.68;102711.91;4992831;28;20116;-45
2024/01/13 04:14:10;;;;;;;4.28;1.60;;;;;;;8.95;74.46;102706.31;4991866;28;20034;-46
2024/01/13 04:16:35;;;;;;;3.58;1.30;;;;;;;8.66;73.96;102711.75;4992694;28;20062;-46
2024/01/13 04:19:00;;;;;;;2.67;1.02;;;;;;;8.85;73.59;102701.44;4991868;28;20038;-45
2024/01/13 04:21:26;;;;;;;2.85;0.90;;;;;;;8.85;73.60;102701.44;4992243;28;20042;-48
2024/01/13 04:23:51;;;;;;;3.20;0.82;;;;;;;9.04;72.89;102705.84;4991661;28;20042;-47
2024/01/13 04:26:18;;;;;;;4.32;0.90;;;;;;;8.88;72.74;102703.31;4991999;28;20065;-45
2024/01/13 04:28:44;;;;;;;3.45;1.00;;;;;;;9.18;71.53;102709.13;4992229;28;20046;-45
2024/01/13 04:31:09;;;;;;;2.38;0.60;;;;;;;8.77;72.99;102713.22;4991739;28;20041;-44
2024/01/13 04:33:34;;;;;;;2.65;0.70;;;;;;;8.98;72.37;102705.53;4992103;28;20037;-46
2024/01/13 04:36:00;;;;;;;5.10;0.70;;;;;;;9.05;72.10;102706.75;4991145;28;20038;-45
2024/01/13 04:38:25;;;;;;;4.60;0.80;;;;;;;8.86;72.54;102695.44;4992062;28;20035;-46
2024/01/13 04:40:50;;;;;;;2.80;0.80;;;;;;;9.04;72.72;102702.34;4991649;28;20034;-51
2024/01/13 04:43:16;;;;;;;1.75;0.80;;;;;;;9.05;72.21;102691.13;4991926;28;20035;-45
2024/01/13 04:45:41;;;;;;;3.17;0.85;;;;;;;9.18;72.01;102690.91;4990846;28;20173;-46
2024/01/13 04:48:07;;;;;;;1.48;0.80;;;;;;;8.88;72.45;102687.72;4991731;28;20038;-44
2024/01/13 04:50:32;;;;;;;5.60;1.08;;;;;;;9.18;71.73;102694.41;4991869;28;20034;-45
2024/01/13 04:52:57;;;;;;;5.07;1.40;;;;;;;9.17;71.69;102700.41;4991565;28;20096;-46
2024/01/13 04:55:23;;;;;;;6.45;1.70;;;;;;;9.43;69.98;102701.66;4991331;28;20155;-44
2024/01/13 04:57:48;;;;;;;4.80;1.10;;;;;;;9.26;70.66;102706.09;4991273;28;20512;-46
2024/01/13 05:00:14;;;;;;;4.85;1.20;;;;;;;8.85;72.21;102691.03;4991840;28;20034;-46
2024/01/13 05:02:39;;;;;;;2.65;1.00;;;;;;;9.02;72.01;102691.91;4991646;28;20046;-49
2024/01/13 05:05:05;;;;;;;1.00;0.70;;;;;;;8.39;73.07;102697.38;4990511;28;20128;-46
2024/01/13 05:07:30;;;;;;;1.42;0.80;;;;;;;8.57;71.86;102700.91;4991356;28;20038;-49
2024/01/13 05:09:55;;;;;;;0.88;0.70;;;;;;;8.84;70.71;102702.25;4990694;28;20081;-45
2024/01/13 05:12:21;;;;;;;1.60;0.60;;;;;;;8.71;70.64;102705.09;4991486;28;20034;-44
2024/01/13 05:14:46;;;;;;;2.88;0.90;;;;;;;8.50;72.00;102710.09;4990639;28;20041;-51
2024/01/13 05:17:12;;;;;;;1.25;0.80;;;;;;;8.50;71.99;102711.78;4991000;28;20113;-48
2024/01/13 05:19:37;;;;;;;3.22;0.90;;;;;;;8.91;70.50;102709.56;4991445;28;20030;-43
2024/01/13 05:22:02;;;;;;;3.35;0.93;;;;;;;9.17;69.31;102699.53;4991038;28;20042;-51
2024/01/13 05:24:28;;;;;;;1.98;0.95;;;;;;;8.91;69.73;102691.34;4989518;28;20042;-46
2024/01/13 05:26:54;;;;;;;1.83;1.05;;;;;;;8.93;69.85;102694.94;4990609;28;20542;-46
2024/01/13 05:29:19;;;;;;;4.75;1.30;;;;;;;8.62;70.10;102693.31;4991244;28;20575;-48
2024/01/13 05:31:47;;;;;;;5.35;1.50;;;;;;;8.45;70.64;102676.88;4991075;28;20041;-51
2024/01/13 05:34:12;;;;;;;7.10;1.70;;;;;;;8.99;68.65;102681.31;4990672;28;20034;-43
2024/01/13 05:36:37;;;;;;;5.30;1.55;;;;;;;8.92;69.54;102671.44;4992494;28;20035;-47
2024/01/13 05:39:03;;;;;;;4.07;1.77;;;;;;;9.06;68.95;102661.69;4994048;28;20104;-48
2024/01/13 05:41:28;;;;;;;3.80;1.95;;;;;;;8.23;71.85;102661.00;4994642;28;20043;-45
2024/01/13 05:43:53;;;;;;;3.97;1.90;;;;;;;8.59;70.33;102646.41;4993975;28;20053;-45
2024/01/13 05:46:19;;;;;;;6.20;2.13;;;;;;;8.88;69.81;102653.91;4991167;28;20034;-45
2024/01/13 05:48:44;;;;;;;5.13;2.30;;;;;;;8.69;70.08;102651.22;4991156;28;20117;-44
2024/01/13 05:51:09;;;;;;;5.07;2.40;;;;;;;9.03;69.69;102654.63;4990971;28;20566;-47
2024/01/13 05:53:35;;;;;;;4.78;2.63;;;;;;;8.58;70.88;102655.00;4991639;28;20089;-44
2024/01/13 05:56:00;;;;;;;6.53;2.75;;;;;;;8.88;70.26;102651.31;4988274;28;20489;-45
2024/01/13 05:58:25;;;;;;;5.22;2.80;;;;;;;8.53;71.22;102660.88;4991343;28;20053;-45
2024/01/13 06:00:51;;;;;;;5.45;2.92;;;;;;;8.43;72.63;102671.59;4990431;28;20038;-44
2024/01/13 06:03:16;;;;;;;6.70;3.22;;;;;;;8.72;71.52;102661.78;4990912;28;20497;-47
2024/01/13 06:05:42;;;;;;;5.50;2.92;;;;;;;8.82;70.79;102657.09;4990291;28;20078;-47
2024/01/13 06:08:08;;;;;;;5.45;3.08;;;;;;;8.36;72.61;102650.41;4990440;28;20054;-46
2024/01/13 06:10:34;;;;;;;5.25;2.65;;;;;;;8.17;72.84;102645.09;4991182;28;20400;-44
2024/01/13 06:13:00;;;;;;;5.85;2.55;;;;;;;8.66;70.75;102653.69;4990583;28;20038;-45
2024/01/13 06:15:26;;;;;;;5.53;2.42;;;;;;;8.49;71.43;102661.53;4990163;28;20093;-46
2024/01/13 06:17:52;;;;;;;6.38;2.50;;;;;;;8.58;70.61;102653.28;4990692;28;20046;-44
2024/01/13 06:20:17;;;;;;;4.93;2.55;;;;;;;8.58;70.53;102634.19;4990786;28;20030;-45
2024/01/13 06:22:43;;;;;;;4.13;2.65;;;;;;;8.58;70.97;102626.41;4991545;28;20416;-48
2024/01/13 06:25:08;;;;;;;5.97;2.40;;;;;;;8.43;71.33;102613.53;4990286;28;20085;-45
2024/01/13 06:27:34;;;;;;;3.55;2.40;;;;;;;8.67;70.72;102604.34;4991313;28;20034;-45
2024/01/13 06:29:59;;;;;;;5.13;2.80;;;;;;;8.37;71.16;102598.53;4990924;28;20035;-46
2024/01/13 06:32:24;;;;;;;6.53;3.20;;;;;;;8.63;70.55;102592.00;4991056;28;20512;-45
2024/01/13 06:34:50;;;;;;;7.32;3.95;;;;;;;8.75;70.55;102590.00;4989209;28;20031;-44
2024/01/13 06:37:15;;;;;;;6.60;3.80;;;;;;;8.81;69.60;102586.81;4991093;28;20042;-50
2024/01/13 06:39:40;;;;;;;8.35;4.18;;;;;;;8.82;70.46;102588.59;4991284;28;20041;-45
2024/01/13 06:42:06;;;;;;;5.85;3.95;;;;;;;9.00;69.87;102580.75;4990847;28;20057;-46
2024/01/13 06:44:33;;;;;;;9.73;3.92;;;;;;;8.66;70.27;102563.53;4991383;28;20030;-45
2024/01/13 06:46:58;;;;;;;8.85;4.07;;;;;;;8.77;71.13;102562.38;4991153;28;20034;-46
2024/01/13 06:49:23;;;;;;;8.30;4.20;;;;;;;8.77;70.44;102577.97;4992915;28;20524;-45
2024/01/13 06:51:49;;;;;;;8.50;4.80;;;;;;;8.76;71.20;102572.69;4992059;28;20026;-45
2024/01/13 06:54:14;;;;;;;10.75;4.93;;;;;;;8.67;71.38;102564.44;4992558;28;20045;-45
2024/01/13 06:56:41;;;;;;;9.90;6.10;;;;;;;8.45;71.99;102566.03;4991863;28;20034;-45
2024/01/13 06:59:07;;;;;;;12.18;6.88;;;;;;;8.44;72.09;102568.53;4990246;28;20044;-47
2024/01/13 07:01:32;;;;;;;12.73;7.20;;;;;;;8.64;69.86;102575.59;4990115;28;20497;-49
2024/01/13 07:03:58;;;;;;;10.80;6.90;;;;;;;8.40;70.08;102571.81;4989630;28;20429;-44
2024/01/13 07:06:23;;;;;;;10.57;6.40;;;;;;;8.78;69.69;102552.88;4990116;28;20096;-46
2024/01/13 07:08:48;;;;;;;10.45;5.65;;;;;;;8.41;69.53;102563.22;4992567;28;20038;-47
2024/01/13 07:11:14;;;;;;;10.02;5.07;;;;;;;8.29;71.01;102557.38;4993720;28;20045;-45
2024/01/13 07:13:44;;;;;;;8.25;4.70;;;;;;;8.06;70.71;102551.91;4993789;28;20109;-47
2024/01/13 07:16:10;;;;;;;12.80;5.55;;;;;;;8.41;69.96;102538.09;4992205;28;20687;-45
2024/01/13 07:18:35;;;;;;;9.50;5.20;;;;;;;8.29;70.75;102532.28;4992015;28;20046;-47
2024/01/13 07:21:00;;;;;;;11.00;5.22;;;;;;;8.36;70.39;102551.66;4992817;28;20413;-46
2024/01/13 07:23:26;;;;;;;11.13;5.88;;;;;;;8.48;69.51;102549.66;4992072;28;20046;-45
2024/01/13 07:25:51;;;;;;;11.35;5.78;;;;;;;8.49;68.85;102546.25;4991616;28;20137;-47
2024/01/13 07:28:17;;;;;;;9.80;6.05;;;;;;;7.93;70.30;102518.34;4993863;28;20085;-45
2024/01/13 07:30:42;;;;;;;11.13;5.88;;;;;;;8.02;70.40;102524.00;4993516;28;20041;-46
2024/01/13 07:33:07;;;;;;;10.60;6.07;;;;;;;8.10;70.66;102543.47;4992197;28;20587;-46
2024/01/13 07:35:35;;;;;;;12.35;6.30;;;;;;;8.26;69.73;102539.91;4993420;28;20046;-44
2024/01/13 07:38:01;;;;;;;12.18;6.00;;;;;;;8.78;67.76;102525.13;4993064;28;20089;-45
2024/01/13 07:40:26;;;;;;;10.80;6.13;;;;;;;8.68;68.16;102522.91;4993327;28;20042;-47
2024/01/13 07:42:52;;;;;;;11.40;6.30;;;;;;;8.57;68.67;102528.44;4992131;28;20042;-45
2024/01/13 07:45:17;;;;;;;13.73;6.50;;;;;;;8.60;68.31;102529.47;4992863;28;20042;-46
2024/01/13 07:47:43;;;;;;;13.65;6.47;;;;;;;8.51;68.91;102548.13;4993233;28;20121;-48
2024/01/13 07:50:09;;;;;;;13.73;6.32;;;;;;;8.60;68.63;102558.06;4992286;28;20034;-47
2024/01/13 07:52:34;;;;;;;12.68;6.63;;;;;;;8.50;68.69;102543.75;4992954;28;20457;-47
2024/01/13 07:54:59;;;;;;;15.15;6.93;;;;;;;8.57;68.91;102538.84;4991557;28;20403;-45
2024/01/13 07:57:27;;;;;;;13.60;7.05;;;;;;;8.52;69.39;102534.31;5005169;23;20042;-45
2024/01/13 07:59:53;;;;;;;14.55;7.20;;;;;;;8.35;69.85;102522.22;4991670;28;20092;-44
2024/01/13 08:02:18;;;;;;;16.73;7.60;;;;;;;8.43;70.38;102515.66;4992126;28;20506;-43
2024/01/13 08:04:43;;;;;;;16.25;8.20;;;;;;;8.29;69.89;102521.00;4992082;28;20042;-44
2024/01/13 08:07:09;;;;;;;15.63;8.30;;;;;;;8.71;68.59;102523.09;4991305;28;20031;-47
2024/01/13 08:09:34;;;;;;;17.42;8.80;;;;;;;8.40;69.62;102533.72;4991986;28;20555;-43
2024/01/13 08:11:59;;;;;;;15.32;8.30;;;;;;;8.96;67.85;102535.53;4991554;28;20058;-46
2024/01/13 08:14:25;;;;;;;17.25;8.88;;;;;;;8.81;67.48;102532.19;4991721;28;20041;-44
2024/01/13 08:16:50;;;;;;;16.77;8.75;;;;;;;8.43;69.07;102541.66;4991157;28;20041;-46
2024/01/13 08:19:15;;;;;;;18.55;8.68;;;;;;;8.37;69.93;102532.66;4991726;28;20096;-43
2024/01/13 08:21:41;;;;;;;15.05;8.23;;;;;;;8.53;68.78;102533.50;4991834;28;20039;-44
2024/01/13 08:24:08;;;;;;;13.20;7.15;;;;;;;8.02;68.99;102529.19;4991245;28;20509;-43
2024/01/13 08:26:35;;;;;;;12.63;7.40;;;;;;;7.79;69.14;102521.06;4991665;28;20038;-46
2024/01/13 08:29:00;;;;;;;13.32;7.18;;;;;;;8.06;69.39;102522.44;4991458;28;20034;-44
2024/01/13 08:31:25;;;;;;;11.85;7.13;;;;;;;8.47;66.64;102520.22;4991467;28;20050;-45
2024/01/13 08:33:51;;;;;;;12.27;7.03;;;;;;;8.63;66.38;102521.81;4991116;28;20041;-45
2024/01/13 08:36:17;;;;;;;10.40;6.20;;;;;;;8.44;66.92;102526.94;4991158;28;20129;-46
2024/01/13 08:38:44;;;;;;;13.55;7.10;;;;;;;7.83;69.07;102528.19;4991625;28;20030;-48
2024/01/13 08:41:12;;;;;;;12.32;7.05;;;;;;;8.17;68.46;102525.59;4989398;28;20030;-45
2024/01/13 08:43:38;;;;;;;13.48;7.78;;;;;;;8.49;67.68;102517.66;4989972;28;20126;-46
2024/01/13 08:46:03;;;;;;;14.45;7.13;;;;;;;8.53;66.82;102504.91;4990679;28;20113;-45
2024/01/13 08:48:28;;;;;;;15.63;8.43;;;;;;;8.08;68.25;102511.31;4991636;28;20413;-45
2024/01/13 08:50:54;;;;;;;18.92;9.15;;;;;;;7.72;69.18;102506.88;4990748;28;20030;-44
2024/01/13 08:53:19;;;;;;;20.70;9.57;;;;;;;8.22;67.72;102500.72;4990264;28;20042;-50
2024/01/13 08:55:44;;;;;;;19.17;10.05;;;;;;;8.79;65.63;102494.81;4990616;28;20034;-49
2024/01/13 08:58:10;;;;;;;19.15;9.93;;;;;;;8.47;65.66;102504.63;4990705;28;20068;-45
2024/01/13 09:00:35;;;;;;;19.42;10.25;;;;;;;8.72;64.38;102508.38;4990889;28;20031;-46
2024/01/13 09:03:00;;;;;;;19.25;10.75;;;;;;;8.29;65.38;102506.28;4989176;28;20501;-45
2024/01/13 09:05:27;;;;;;;22.98;11.52;;;;;;;8.55;64.95;102505.84;4990725;28;20077;-44
2024/01/13 09:07:53;;;;;;;24.15;11.93;;;;;;;8.05;66.29;102507.69;4990621;28;20066;-45
2024/01/13 09:10:19;;;;;;;25.52;12.05;;;;;;;8.18;65.87;102519.56;4991254;28;20049;-47
2024/01/13 09:12:44;;;;;;;24.42;13.00;;;;;;;8.21;66.11;102515.41;4991334;28;20421;-46
2024/01/13 09:15:11;;;;;;;25.02;13.55;;;;;;;8.37;65.56;102514.47;4990374;28;20041;-47
2024/01/13 09:17:37;;;;;;;28.45;14.80;;;;;;;8.02;65.65;102511.03;4991749;28;20394;-46
2024/01/13 09:20:03;;;;;;;30.20;15.15;;;;;;;8.48;64.73;102500.28;4990658;28;20066;-46
2024/01/13 09:22:28;;;;;;;27.52;15.45;;;;;;;8.48;64.58;102495.09;4990687;28;20171;-44
2024/01/13 09:24:54;;;;;;;29.50;14.82;;;;;;;7.89;66.30;102493.03;4990242;28;20034;-46
2024/01/13 09:27:19;;;;;;;29.33;14.77;;;;;;;8.26;65.16;102490.53;4990557;28;20401;-49
2024/01/13 09:29:45;;;;;;;27.67;14.35;;;;;;;7.96;66.59;102482.16;4990515;28;20030;-45
2024/01/13 09:32:12;;;;;;;29.77;14.70;;;;;;;7.95;66.39;102488.16;4990306;28;20049;-46
2024/01/13 09:34:37;;;;;;;27.98;14.25;;;;;;;8.24;65.69;102492.16;4990615;28;20042;-44
2024/01/13 09:37:03;;;;;;;28.20;14.80;;;;;;;8.14;65.59;102490.84;4990342;28;20071;-49
2024/01/13 09:39:28;;;;;;;28.27;14.57;;;;;;;8.07;65.62;102487.88;4992442;28;20037;-43
2024/01/13 09:41:54;;;;;;;28.98;15.15;;;;;;;8.15;65.76;102483.94;4992085;28;20039;-43
2024/01/13 09:44:27;;;;;;;31.38;15.50;;;;;;;7.90;66.18;102492.22;4992615;28;20052;-46
2024/01/13 09:46:55;;;;;;;27.77;15.27;;;;;;;7.90;65.85;102480.94;4990970;28;20105;-46
2024/01/13 09:49:23;;;;;;;27.02;15.10;;;;;;;8.06;65.31;102481.78;4991184;28;20437;-44
2024/01/13 09:51:49;;;;;;;31.27;15.85;;;;;;;8.25;64.00;102482.66;4992593;28;20034;-43
2024/01/13 09:54:27;;;;;;;31.95;16.77;;;;;;;8.35;63.84;102478.03;4994293;28;20484;-44
2024/01/13 09:56:54;;;;;;;32.33;16.55;;;;;;;8.38;63.30;102472.97;4994265;28;20038;-43
2024/01/13 09:59:21;;;;;;;33.10;17.35;;;;;;;8.62;62.44;102477.53;4991482;28;20166;-43
2024/01/13 10:01:47;;;;;;;35.45;17.48;;;;;;;8.59;62.34;102473.13;4990068;28;20493;-47
2024/01/13 10:04:12;;;;;;;37.10;17.80;;;;;;;8.78;62.12;102472.25;4990358;28;20042;-47
2024/01/13 10:06:39;;;;;;;34.60;18.60;;;;;;;8.08;64.31;102469.75;4988794;28;20037;-47
2024/01/13 10:09:05;;;;;;;34.10;18.48;;;;;;;7.88;65.20;102465.28;4990452;28;20034;-46
2024/01/13 10:11:30;;;;;;;37.75;19.48;;;;;;;8.24;65.46;102471.38;4990597;28;20049;-46
2024/01/13 10:13:59;;;;;;;37.42;20.20;;;;;;;8.43;64.63;102468.00;4989508;28;20053;-44
2024/01/13 10:16:29;;;;;;;38.03;19.30;;;;;;;8.45;64.15;102472.44;4989607;28;20043;-45
2024/01/13 10:18:58;;;;;;;37.70;19.33;;;;;;;8.37;64.30;102466.00;4989525;28;20030;-46
2024/01/13 10:21:24;;;;;;;42.22;21.33;;;;;;;8.71;62.88;102460.69;4989782;28;20042;-44
2024/01/13 10:23:50;;;;;;;47.20;22.58;;;;;;;8.57;63.29;102458.25;4989245;28;20401;-48
2024/01/13 10:26:15;;;;;;;45.55;22.00;;;;;;;8.57;63.86;102466.94;4989627;28;20042;-48
2024/01/13 10:28:41;;;;;;;45.40;22.73;;;;;;;8.73;63.79;102466.81;4989787;28;20500;-44
2024/01/13 10:31:06;;;;;;;48.80;23.65;;;;;;;8.75;63.45;102467.78;4989546;28;20045;-47
2024/01/13 10:33:31;;;;;;;48.53;23.20;;;;;;;8.38;63.78;102469.47;4989898;28;20030;-44
2024/01/13 10:35:57;;;;;;;52.80;24.40;;;;;;;8.44;64.03;102454.19;4988909;28;20045;-46
2024/01/13 10:38:22;;;;;;;49.60;23.35;;;;;;;8.65;63.32;102446.50;4990108;28;20038;-45
2024/01/13 10:40:49;;;;;;;45.55;22.50;;;;;;;8.23;64.48;102447.94;4989268;28;20042;-45
2024/01/13 10:43:18;;;;;;;50.17;23.08;;;;;;;8.18;65.05;102441.63;4991829;28;20108;-48
2024/01/13 10:45:49;;;;;;;47.95;23.27;;;;;;;8.20;64.49;102446.09;4992835;28;20048;-44
2024/01/13 10:48:30;;;;;;;49.67;24.52;;;;;;;7.82;65.80;102431.22;4993265;28;20050;-45
2024/01/13 10:50:56;;;;;;;47.50;22.63;;;;;;;8.55;62.74;102434.78;4993134;28;20034;-44
2024/01/13 10:53:26;;;;;;;50.45;23.17;;;;;;;8.79;62.12;102422.88;4993613;28;20034;-44
2024/01/13 10:55:53;;;;;;;47.47;22.23;;;;;;;8.17;63.89;102443.34;4992175;28;20053;-44
2024/01/13 10:58:20;;;;;;;43.60;21.30;;;;;;;8.83;61.74;102443.03;4993521;28;20045;-45
2024/01/13 11:00:46;;;;;;;44.83;21.48;;;;;;;8.44;62.47;102442.09;4993057;28;20694;-44
2024/01/13 11:03:15;;;;;;;48.88;21.50;;;;;;;8.68;62.49;102444.03;4992854;28;20141;-46
2024/01/13 11:05:41;;;;;;;45.00;20.80;;;;;;;8.59;63.37;102441.03;4992699;28;20038;-47
2024/01/13 11:08:07;;;;;;;47.28;21.15;;;;;;;8.70;62.06;102426.81;4992725;28;20468;-47
2024/01/13 11:10:37;;;;;;;47.42;21.25;;;;;;;8.50;62.66;102421.56;4993070;28;20039;-44
2024/01/13 11:13:13;;;;;;;44.33;21.27;;;;;;;8.27;64.95;102427.38;4992718;28;20408;-44
2024/01/13 11:15:43;;;;;;;45.80;20.50;;;;;;;8.26;64.43;102412.59;4992563;28;20039;-47
2024/01/13 11:18:12;;;;;;;41.08;20.70;;;;;;;8.55;63.11;102409.66;4992714;28;20092;-44